Time;durP1;ratioP1;P1;durP2;ratioP2;P2;SDS_P1;SDS_P2;PMS_P1;PMS_P2;Temp;Humidity;BMP_temperature;BMP_pressure;BME280_temperature;BME280_humidity;BME280_pressure;Samples;Min_cycle;Max_cycle;Signal;HPM_P1;HPM_P2
2019/11/14 00:00:31;;;;;;;2.63;2.40;;;;;;;19.64;47.40;99347.59;;;;-56
2019/11/14 00:03:30;;;;;;;2.63;2.40;;;;;;;19.63;47.31;99340.80;;;;-56
2019/11/14 00:06:30;;;;;;;2.66;2.43;;;;;;;19.62;47.40;99334.56;;;;-55
2019/11/14 00:09:30;;;;;;;2.53;2.33;;;;;;;19.62;47.40;99331.79;;;;-56
2019/11/14 00:12:30;;;;;;;2.57;2.37;;;;;;;19.60;47.38;99326.81;;;;-55
2019/11/14 00:15:30;;;;;;;2.49;2.29;;;;;;;19.59;47.44;99328.80;;;;-56
2019/11/14 00:18:30;;;;;;;2.80;2.56;;;;;;;19.58;47.47;99324.52;;;;-51
2019/11/14 00:21:30;;;;;;;2.54;2.34;;;;;;;19.58;47.39;99321.84;;;;-51
2019/11/14 00:24:30;;;;;;;2.67;2.45;;;;;;;19.56;47.59;99314.25;;;;-50
2019/11/14 00:27:30;;;;;;;2.87;2.49;;;;;;;19.55;47.49;99316.14;;;;-50
2019/11/14 00:30:30;;;;;;;2.83;2.50;;;;;;;19.54;47.44;99317.55;;;;-50
2019/11/14 00:34:26;;;;;;;2.80;2.39;;;;;;;19.54;47.45;99320.23;;;;-51
2019/11/14 00:36:30;;;;;;;3.52;2.56;;;;;;;19.51;47.52;99318.81;;;;-51
2019/11/14 00:39:30;;;;;;;3.14;2.55;;;;;;;19.51;47.46;99311.78;;;;-51
2019/11/14 00:42:30;;;;;;;2.85;2.55;;;;;;;19.50;47.49;99302.47;;;;-51
2019/11/14 00:45:30;;;;;;;2.76;2.43;;;;;;;19.50;47.47;99302.05;;;;-51
2019/11/14 00:48:30;;;;;;;3.19;2.26;;;;;;;19.48;47.57;99304.06;;;;-51
2019/11/14 00:51:30;;;;;;;3.21;2.53;;;;;;;19.46;47.52;99303.61;;;;-51
2019/11/14 00:54:30;;;;;;;2.56;2.33;;;;;;;19.45;47.51;99308.37;;;;-52
2019/11/14 00:57:30;;;;;;;2.53;2.30;;;;;;;19.44;47.61;99303.56;;;;-51
2019/11/14 01:00:30;;;;;;;2.95;2.59;;;;;;;19.43;47.62;99305.41;;;;-52
2019/11/14 01:03:30;;;;;;;2.83;2.36;;;;;;;19.43;47.52;99309.80;;;;-51
2019/11/14 01:06:30;;;;;;;2.79;2.45;;;;;;;19.42;47.57;99308.94;;;;-51
2019/11/14 01:09:30;;;;;;;3.11;2.37;;;;;;;19.40;47.54;99309.91;;;;-52
2019/11/14 01:12:30;;;;;;;2.57;2.26;;;;;;;19.40;47.56;99306.30;;;;-51
2019/11/14 01:15:30;;;;;;;2.50;2.23;;;;;;;19.39;47.53;99302.49;;;;-51
2019/11/14 01:18:30;;;;;;;3.67;2.58;;;;;;;19.36;47.58;99299.56;;;;-52
2019/11/14 01:21:30;;;;;;;2.76;2.43;;;;;;;19.34;47.60;99292.34;;;;-51
2019/11/14 01:24:30;;;;;;;2.61;2.30;;;;;;;19.34;47.63;99289.73;;;;-52
2019/11/14 01:27:31;;;;;;;2.75;2.39;;;;;;;19.32;47.63;99291.22;;;;-51
2019/11/14 01:30:59;;;;;;;2.43;2.23;;;;;;;19.32;47.62;99284.43;;;;-50
2019/11/14 01:33:31;;;;;;;2.73;2.34;;;;;;;19.31;47.54;99281.39;;;;-50
2019/11/14 01:36:35;;;;;;;2.63;2.41;;;;;;;19.30;47.56;99277.34;;;;-51
2019/11/14 01:39:30;;;;;;;2.88;2.64;;;;;;;19.29;47.63;99277.58;;;;-52
2019/11/14 01:42:30;;;;;;;2.57;2.37;;;;;;;19.29;47.57;99272.80;;;;-51
2019/11/14 01:45:30;;;;;;;2.82;2.43;;;;;;;19.29;47.58;99264.59;;;;-51
2019/11/14 01:48:30;;;;;;;2.67;2.47;;;;;;;19.26;47.61;99259.09;;;;-51
2019/11/14 01:51:30;;;;;;;2.95;2.60;;;;;;;19.27;47.56;99267.56;;;;-51
2019/11/14 01:54:30;;;;;;;2.69;2.49;;;;;;;19.26;47.57;99260.34;;;;-50
2019/11/14 01:57:30;;;;;;;2.65;2.45;;;;;;;19.26;47.52;99258.16;;;;-50
2019/11/14 02:00:30;;;;;;;2.58;2.37;;;;;;;19.24;47.58;99260.95;;;;-50
2019/11/14 02:03:30;;;;;;;2.93;2.47;;;;;;;19.24;47.59;99268.31;;;;-50
2019/11/14 02:06:30;;;;;;;2.89;2.45;;;;;;;19.23;47.51;99266.61;;;;-50
2019/11/14 02:09:30;;;;;;;2.89;2.48;;;;;;;19.22;47.55;99266.02;;;;-50
2019/11/14 02:12:30;;;;;;;2.58;2.38;;;;;;;19.22;47.54;99262.00;;;;-50
2019/11/14 02:15:30;;;;;;;2.72;2.48;;;;;;;19.22;47.51;99265.59;;;;-50
2019/11/14 02:18:30;;;;;;;2.52;2.32;;;;;;;19.19;47.56;99262.92;;;;-50
2019/11/14 02:21:30;;;;;;;2.51;2.31;;;;;;;19.20;47.52;99271.49;;;;-50
2019/11/14 02:24:30;;;;;;;2.53;2.33;;;;;;;19.19;47.58;99266.84;;;;-50
2019/11/14 02:27:30;;;;;;;2.69;2.45;;;;;;;19.18;47.58;99264.72;;;;-50
2019/11/14 02:30:30;;;;;;;2.35;2.15;;;;;;;19.18;47.63;99271.34;;;;-50
2019/11/14 02:33:30;;;;;;;2.73;2.45;;;;;;;19.18;47.60;99274.35;;;;-50
2019/11/14 02:36:41;;;;;;;2.62;2.35;;;;;;;19.17;47.57;99274.73;;;;-50
2019/11/14 02:39:34;;;;;;;2.51;2.29;;;;;;;19.16;47.58;99265.93;;;;-50
2019/11/14 02:42:37;;;;;;;2.56;2.36;;;;;;;19.15;47.60;99257.20;;;;-50
2019/11/14 02:45:35;;;;;;;3.12;2.51;;;;;;;19.13;47.67;99252.39;;;;-51
2019/11/14 02:48:31;;;;;;;2.52;2.32;;;;;;;19.13;47.64;99255.44;;;;-52
2019/11/14 02:51:30;;;;;;;2.43;2.23;;;;;;;19.11;47.63;99254.81;;;;-51
2019/11/14 02:54:30;;;;;;;2.48;2.27;;;;;;;19.11;47.62;99251.30;;;;-51
2019/11/14 02:57:30;;;;;;;2.60;2.40;;;;;;;19.10;47.67;99253.45;;;;-51
2019/11/14 03:00:30;;;;;;;2.41;2.19;;;;;;;19.09;47.64;99247.57;;;;-51
2019/11/14 03:03:30;;;;;;;2.71;2.50;;;;;;;19.09;47.63;99247.23;;;;-51
2019/11/14 03:06:30;;;;;;;2.65;2.33;;;;;;;19.08;47.65;99245.77;;;;-52
2019/11/14 03:09:30;;;;;;;2.81;2.51;;;;;;;19.08;47.65;99241.19;;;;-51
2019/11/14 03:12:30;;;;;;;2.56;2.30;;;;;;;19.07;47.63;99235.20;;;;-51
2019/11/14 03:15:30;;;;;;;2.51;2.30;;;;;;;19.06;47.63;99225.64;;;;-51
2019/11/14 03:18:30;;;;;;;2.51;2.31;;;;;;;19.06;47.72;99226.74;;;;-51
2019/11/14 03:21:30;;;;;;;2.63;2.43;;;;;;;19.05;47.61;99219.86;;;;-51
2019/11/14 03:24:30;;;;;;;2.59;2.25;;;;;;;19.05;47.58;99221.70;;;;-51
2019/11/14 03:27:32;;;;;;;2.35;2.15;;;;;;;19.04;47.68;99216.08;;;;-51
2019/11/14 03:30:32;;;;;;;2.47;2.27;;;;;;;19.03;47.70;99204.34;;;;-51
2019/11/14 03:33:32;;;;;;;2.50;2.30;;;;;;;19.03;47.68;99200.33;;;;-51
2019/11/14 03:36:30;;;;;;;2.51;2.31;;;;;;;19.02;47.71;99193.94;;;;-51
2019/11/14 03:39:30;;;;;;;2.49;2.29;;;;;;;19.01;47.71;99191.14;;;;-51
2019/11/14 03:42:30;;;;;;;2.34;2.14;;;;;;;19.01;47.68;99187.63;;;;-51
2019/11/14 03:45:30;;;;;;;2.47;2.27;;;;;;;19.00;47.71;99184.59;;;;-51
2019/11/14 03:48:30;;;;;;;2.58;2.24;;;;;;;19.00;47.70;99182.34;;;;-51
2019/11/14 03:51:37;;;;;;;2.38;2.15;;;;;;;18.99;47.65;99183.99;;;;-51
2019/11/14 03:54:30;;;;;;;3.58;2.25;;;;;;;18.98;47.64;99177.45;;;;-51
2019/11/14 03:57:30;;;;;;;3.01;2.20;;;;;;;18.98;47.68;99174.83;;;;-51
2019/11/14 04:00:30;;;;;;;2.44;2.24;;;;;;;18.97;47.70;99174.57;;;;-51
2019/11/14 04:03:30;;;;;;;2.44;2.23;;;;;;;18.96;47.61;99174.05;;;;-52
2019/11/14 04:06:30;;;;;;;2.59;2.35;;;;;;;18.96;47.68;99168.86;;;;-51
2019/11/14 04:09:30;;;;;;;2.41;2.21;;;;;;;18.95;47.66;99166.09;;;;-51
2019/11/14 04:12:30;;;;;;;2.33;2.13;;;;;;;18.95;47.71;99166.73;;;;-51
2019/11/14 04:15:30;;;;;;;2.47;2.26;;;;;;;18.94;47.64;99163.95;;;;-51
2019/11/14 04:18:30;;;;;;;2.65;2.32;;;;;;;18.94;47.74;99160.61;;;;-51
2019/11/14 04:21:30;;;;;;;2.33;2.13;;;;;;;18.93;47.62;99152.63;;;;-52
2019/11/14 04:24:30;;;;;;;2.50;2.30;;;;;;;18.92;47.64;99150.52;;;;-51
2019/11/14 04:27:30;;;;;;;2.42;2.22;;;;;;;18.92;47.64;99147.08;;;;-51
2019/11/14 04:35:30;;;;;;;2.58;2.33;;;;;;;18.91;47.68;99150.00;;;;-52
2019/11/14 04:38:30;;;;;;;2.49;2.29;;;;;;;18.91;47.59;99145.05;;;;-52
2019/11/14 04:41:30;;;;;;;2.42;2.14;;;;;;;18.91;47.49;99142.88;;;;-51
2019/11/14 04:44:31;;;;;;;3.03;2.18;;;;;;;18.91;47.51;99148.08;;;;-52
2019/11/14 04:47:30;;;;;;;2.45;2.21;;;;;;;18.91;47.51;99150.33;;;;-51
2019/11/14 04:50:30;;;;;;;2.46;2.21;;;;;;;18.93;47.57;99152.89;;;;-52
2019/11/14 04:53:30;;;;;;;2.67;2.13;;;;;;;18.95;47.60;99146.98;;;;-51
2019/11/14 04:56:30;;;;;;;2.34;2.14;;;;;;;18.96;47.46;99148.61;;;;-51
2019/11/14 04:59:31;;;;;;;2.35;2.13;;;;;;;18.99;47.51;99154.28;;;;-52
2019/11/14 05:02:30;;;;;;;2.26;2.06;;;;;;;19.01;47.79;99158.18;;;;-52
2019/11/14 05:05:30;;;;;;;2.31;2.11;;;;;;;19.04;47.93;99164.45;;;;-51
2019/11/14 05:08:30;;;;;;;2.14;1.93;;;;;;;19.06;48.03;99165.84;;;;-52
2019/11/14 05:11:30;;;;;;;2.20;2.00;;;;;;;19.10;48.02;99166.94;;;;-51
2019/11/14 05:14:30;;;;;;;2.19;1.99;;;;;;;19.12;47.96;99164.65;;;;-51
2019/11/14 05:17:30;;;;;;;2.34;2.14;;;;;;;19.17;47.94;99164.61;;;;-52
2019/11/14 05:20:30;;;;;;;2.55;2.31;;;;;;;19.20;47.95;99172.75;;;;-51
2019/11/14 05:23:30;;;;;;;2.22;2.02;;;;;;;19.22;47.95;99175.38;;;;-52
2019/11/14 05:26:31;;;;;;;2.11;1.90;;;;;;;19.26;47.93;99178.32;;;;-52
2019/11/14 05:29:31;;;;;;;2.32;2.08;;;;;;;19.29;47.99;99177.98;;;;-51
2019/11/14 05:32:40;;;;;;;2.14;1.97;;;;;;;19.32;47.96;99180.81;;;;-51
2019/11/14 05:35:31;;;;;;;2.14;1.95;;;;;;;19.36;47.97;99187.00;;;;-52
2019/11/14 05:38:30;;;;;;;2.19;1.96;;;;;;;19.40;48.02;99193.46;;;;-51
2019/11/14 05:41:30;;;;;;;2.34;2.11;;;;;;;19.44;47.99;99197.75;;;;-51
2019/11/14 05:44:30;;;;;;;2.26;2.05;;;;;;;19.46;48.02;99202.81;;;;-52
2019/11/14 05:47:31;;;;;;;2.04;1.90;;;;;;;19.49;48.04;99208.08;;;;-51
2019/11/14 05:50:30;;;;;;;2.09;1.89;;;;;;;19.52;48.05;99209.05;;;;-51
2019/11/14 05:53:30;;;;;;;2.27;2.03;;;;;;;19.55;48.01;99209.91;;;;-50
2019/11/14 05:56:30;;;;;;;2.28;2.08;;;;;;;19.57;48.02;99212.96;;;;-51
2019/11/14 05:59:30;;;;;;;2.06;1.90;;;;;;;19.60;48.02;99217.63;;;;-51
2019/11/14 06:02:30;;;;;;;2.21;2.01;;;;;;;19.62;48.01;99221.02;;;;-51
2019/11/14 06:05:31;;;;;;;2.10;1.89;;;;;;;19.64;48.00;99219.83;;;;-50
2019/11/14 06:08:31;;;;;;;2.59;1.92;;;;;;;19.66;48.05;99222.80;;;;-51
2019/11/14 06:11:30;;;;;;;3.37;2.71;;;;;;;19.63;46.29;99221.45;;;;-51
2019/11/14 06:14:30;;;;;;;2.55;2.25;;;;;;;19.64;46.72;99217.89;;;;-51
2019/11/14 06:17:30;;;;;;;8.15;2.37;;;;;;;19.66;46.89;99214.16;;;;-51
2019/11/14 06:20:31;;;;;;;4.81;2.35;;;;;;;19.68;46.93;99209.34;;;;-52
2019/11/14 06:23:30;;;;;;;6.47;2.45;;;;;;;19.71;47.02;99204.05;;;;-52
2019/11/14 06:26:30;;;;;;;7.87;2.19;;;;;;;19.72;47.13;99202.41;;;;-52
2019/11/14 06:29:30;;;;;;;4.07;2.06;;;;;;;19.72;47.24;99203.27;;;;-52
2019/11/14 06:32:30;;;;;;;4.95;1.99;;;;;;;19.73;47.34;99205.54;;;;-51
2019/11/14 06:35:30;;;;;;;3.76;1.90;;;;;;;19.73;47.31;99204.94;;;;-52
2019/11/14 06:38:31;;;;;;;2.41;1.99;;;;;;;19.74;47.26;99213.27;;;;-51
2019/11/14 06:41:30;;;;;;;4.30;2.18;;;;;;;19.75;47.20;99215.23;;;;-51
2019/11/14 06:44:30;;;;;;;2.11;1.88;;;;;;;19.77;47.11;99218.86;;;;-52
2019/11/14 06:47:34;;;;;;;2.54;1.89;;;;;;;19.78;47.09;99225.83;;;;-52
2019/11/14 06:50:30;;;;;;;1.98;1.80;;;;;;;19.79;47.09;99231.21;;;;-52
2019/11/14 06:53:30;;;;;;;3.14;2.05;;;;;;;19.79;47.03;99240.42;;;;-52
2019/11/14 06:56:30;;;;;;;2.15;1.95;;;;;;;19.79;46.94;99239.34;;;;-52
2019/11/14 06:59:30;;;;;;;3.44;1.97;;;;;;;19.80;46.95;99242.56;;;;-52
2019/11/14 07:02:30;;;;;;;2.49;1.93;;;;;;;19.80;46.89;99240.95;;;;-52
2019/11/14 07:05:30;;;;;;;2.21;2.01;;;;;;;19.79;46.98;99246.37;;;;-52
2019/11/14 07:08:30;;;;;;;2.01;1.80;;;;;;;19.79;46.98;99242.09;;;;-52
2019/11/14 07:11:31;;;;;;;1.95;1.75;;;;;;;19.79;47.09;99233.15;;;;-52
2019/11/14 07:14:30;;;;;;;2.03;1.82;;;;;;;19.79;46.97;99233.22;;;;-52
2019/11/14 07:17:30;;;;;;;2.45;1.99;;;;;;;19.78;47.25;99240.33;;;;-49
2019/11/14 07:20:30;;;;;;;2.37;1.91;;;;;;;19.80;47.28;99248.09;;;;-48
2019/11/14 07:23:30;;;;;;;3.07;2.05;;;;;;;19.82;47.35;99253.16;;;;-51
2019/11/14 07:26:30;;;;;;;2.31;1.96;;;;;;;19.85;47.49;99258.16;;;;-50
2019/11/14 07:29:30;;;;;;;2.11;1.77;;;;;;;19.88;47.50;99253.94;;;;-49
2019/11/14 07:32:31;;;;;;;2.10;1.90;;;;;;;19.91;47.55;99246.91;;;;-51
2019/11/14 07:35:31;;;;;;;2.03;1.81;;;;;;;19.94;47.57;99244.13;;;;-53
2019/11/14 07:38:30;;;;;;;2.59;2.01;;;;;;;19.99;47.52;99245.78;;;;-53
2019/11/14 07:41:30;;;;;;;2.73;1.81;;;;;;;20.02;47.49;99246.66;;;;-52
2019/11/14 07:44:30;;;;;;;4.54;1.94;;;;;;;20.03;47.30;99250.39;;;;-53
2019/11/14 07:47:30;;;;;;;2.33;1.83;;;;;;;20.05;47.41;99253.45;;;;-52
2019/11/14 07:50:30;;;;;;;4.72;1.93;;;;;;;20.08;47.33;99255.44;;;;-53
2019/11/14 07:53:30;;;;;;;2.91;1.86;;;;;;;20.10;47.36;99245.66;;;;-52
2019/11/14 07:56:30;;;;;;;2.16;1.86;;;;;;;20.12;47.23;99239.68;;;;-53
2019/11/14 07:59:30;;;;;;;2.53;1.95;;;;;;;20.15;47.45;99242.09;;;;-53
2019/11/14 08:02:30;;;;;;;1.91;1.75;;;;;;;20.17;47.96;99233.01;;;;-49
2019/11/14 08:05:31;;;;;;;2.29;1.72;;;;;;;20.19;47.60;99228.36;;;;-54
2019/11/14 08:08:30;;;;;;;2.76;1.75;;;;;;;20.23;47.75;99225.34;;;;-56
2019/11/14 08:11:30;;;;;;;2.05;1.84;;;;;;;20.25;47.72;99231.38;;;;-50
2019/11/14 08:14:30;;;;;;;2.83;1.91;;;;;;;20.27;47.77;99235.45;;;;-49
2019/11/14 08:17:30;;;;;;;4.01;1.80;;;;;;;20.30;47.95;99241.38;;;;-51
2019/11/14 08:20:31;;;;;;;2.17;1.79;;;;;;;20.33;47.73;99239.09;;;;-51
2019/11/14 08:23:30;;;;;;;3.39;1.90;;;;;;;20.34;47.98;99241.23;;;;-51
2019/11/14 08:26:30;;;;;;;1.93;1.71;;;;;;;20.37;48.07;99242.80;;;;-51
2019/11/14 08:29:30;;;;;;;3.28;1.86;;;;;;;20.40;48.15;99251.58;;;;-53
2019/11/14 08:32:30;;;;;;;4.15;2.02;;;;;;;20.44;47.97;99257.38;;;;-48
2019/11/14 08:35:30;;;;;;;5.69;1.87;;;;;;;20.48;47.73;99263.59;;;;-54
2019/11/14 08:38:30;;;;;;;2.92;1.89;;;;;;;20.50;48.15;99259.10;;;;-53
2019/11/14 08:41:30;;;;;;;3.59;1.87;;;;;;;20.51;47.96;99250.21;;;;-60
2019/11/14 08:44:30;;;;;;;5.00;1.70;;;;;;;20.54;48.32;99252.28;;;;-52
2019/11/14 08:47:30;;;;;;;2.60;1.70;;;;;;;20.54;47.83;99256.58;;;;-54
2019/11/14 08:50:30;;;;;;;2.27;1.71;;;;;;;20.56;48.06;99262.38;;;;-56
2019/11/14 08:53:30;;;;;;;2.25;1.77;;;;;;;20.59;48.03;99274.77;;;;-55
2019/11/14 08:56:30;;;;;;;3.55;1.87;;;;;;;20.60;47.92;99279.82;;;;-47
2019/11/14 08:59:30;;;;;;;2.73;1.71;;;;;;;20.61;48.13;99289.41;;;;-47
2019/11/14 09:02:30;;;;;;;2.26;1.70;;;;;;;20.64;48.12;99283.59;;;;-51
2019/11/14 09:05:30;;;;;;;3.00;1.89;;;;;;;20.63;47.90;99282.83;;;;-47
2019/11/14 09:08:30;;;;;;;2.45;1.60;;;;;;;20.66;48.05;99276.76;;;;-51
2019/11/14 09:11:30;;;;;;;4.69;1.72;;;;;;;20.67;47.94;99275.27;;;;-51
2019/11/14 09:14:30;;;;;;;2.02;1.75;;;;;;;20.68;47.87;99277.80;;;;-54
2019/11/14 09:17:30;;;;;;;8.11;2.11;;;;;;;20.73;47.58;99265.59;;;;-52
2019/11/14 09:20:30;;;;;;;3.51;1.98;;;;;;;20.73;47.55;99274.72;;;;-52
2019/11/14 09:23:30;;;;;;;2.67;1.73;;;;;;;20.72;47.48;99278.05;;;;-52
2019/11/14 09:26:30;;;;;;;3.33;1.90;;;;;;;20.71;47.33;99269.57;;;;-52
2019/11/14 09:29:30;;;;;;;3.19;1.70;;;;;;;20.72;47.34;99259.94;;;;-51
2019/11/14 09:32:30;;;;;;;3.44;1.63;;;;;;;20.71;47.22;99248.27;;;;-51
2019/11/14 09:35:30;;;;;;;3.05;1.77;;;;;;;20.71;47.13;99241.47;;;;-51
2019/11/14 09:38:30;;;;;;;2.64;1.78;;;;;;;20.70;47.16;99216.95;;;;-51
2019/11/14 09:41:30;;;;;;;1.85;1.67;;;;;;;20.70;47.13;99208.56;;;;-52
2019/11/14 09:44:30;;;;;;;3.45;1.76;;;;;;;20.69;47.04;99211.06;;;;-52
2019/11/14 09:47:30;;;;;;;1.86;1.57;;;;;;;20.68;47.04;99208.86;;;;-52
2019/11/14 09:53:30;;;;;;;5.77;1.90;;;;;;;20.70;47.09;99207.05;;;;-58
2019/11/14 09:56:30;;;;;;;4.00;1.87;;;;;;;20.73;47.42;99204.02;;;;-51
2019/11/14 09:59:30;;;;;;;5.41;1.70;;;;;;;20.73;47.62;99199.05;;;;-53
2019/11/14 10:02:30;;;;;;;7.93;1.98;;;;;;;20.76;47.73;99200.19;;;;-51
2019/11/14 10:05:30;;;;;;;3.69;1.69;;;;;;;20.76;47.54;99200.45;;;;-51
2019/11/14 10:08:30;;;;;;;4.93;1.77;;;;;;;20.78;47.84;99195.53;;;;-54
2019/11/14 10:11:30;;;;;;;3.72;1.82;;;;;;;20.76;47.27;99203.57;;;;-51
2019/11/14 10:14:30;;;;;;;6.15;2.39;;;;;;;20.77;47.49;99207.02;;;;-57
2019/11/14 10:17:30;;;;;;;3.66;1.88;;;;;;;20.76;47.23;99206.49;;;;-54
2019/11/14 10:20:30;;;;;;;2.65;1.80;;;;;;;20.76;47.21;99212.87;;;;-53
2019/11/14 10:23:30;;;;;;;2.90;1.70;;;;;;;20.74;47.19;99213.93;;;;-54
2019/11/14 10:26:30;;;;;;;3.31;1.68;;;;;;;20.74;47.19;99214.00;;;;-54
2019/11/14 10:29:30;;;;;;;3.27;1.70;;;;;;;20.73;47.17;99213.38;;;;-54
2019/11/14 10:32:30;;;;;;;3.57;1.77;;;;;;;20.72;47.13;99209.53;;;;-53
2019/11/14 10:35:30;;;;;;;3.53;1.66;;;;;;;20.72;47.00;99206.67;;;;-54
2019/11/14 10:38:30;;;;;;;3.51;1.80;;;;;;;20.73;47.13;99213.14;;;;-53
2019/11/14 10:41:30;;;;;;;3.93;1.64;;;;;;;20.74;47.18;99216.61;;;;-50
2019/11/14 10:44:30;;;;;;;2.62;1.77;;;;;;;20.76;47.26;99216.98;;;;-49
2019/11/14 10:47:30;;;;;;;2.42;1.62;;;;;;;20.79;47.23;99228.36;;;;-49
2019/11/14 10:50:30;;;;;;;1.94;1.51;;;;;;;20.79;47.14;99230.47;;;;-50
2019/11/14 10:53:30;;;;;;;3.90;1.81;;;;;;;20.82;47.16;99233.30;;;;-52
2019/11/14 11:01:30;;;;;;;2.49;1.73;;;;;;;20.84;47.31;99249.38;;;;-48
2019/11/14 11:04:30;;;;;;;4.51;1.70;;;;;;;20.86;47.34;99249.44;;;;-50
2019/11/14 11:07:30;;;;;;;2.59;1.60;;;;;;;20.88;47.26;99248.27;;;;-53
2019/11/14 11:10:30;;;;;;;3.26;1.60;;;;;;;20.89;47.21;99238.55;;;;-52
2019/11/14 11:13:30;;;;;;;2.51;1.50;;;;;;;20.90;47.26;99234.38;;;;-48
2019/11/14 11:16:30;;;;;;;5.35;1.81;;;;;;;20.93;47.15;99227.14;;;;-55
2019/11/14 11:19:30;;;;;;;5.09;1.65;;;;;;;20.92;47.07;99223.78;;;;-56
2019/11/14 11:22:31;;;;;;;2.67;1.65;;;;;;;20.91;46.97;99225.77;;;;-51
2019/11/14 11:25:30;;;;;;;1.51;1.41;;;;;;;20.91;46.98;99222.73;;;;-51
2019/11/14 11:28:30;;;;;;;2.84;1.68;;;;;;;20.91;46.37;99222.22;;;;-51
2019/11/14 11:31:30;;;;;;;6.77;2.13;;;;;;;20.86;44.77;99222.30;;;;-48
2019/11/14 11:34:30;;;;;;;4.77;2.05;;;;;;;20.87;45.21;99216.37;;;;-51
2019/11/14 11:37:30;;;;;;;5.69;1.88;;;;;;;20.89;45.62;99214.99;;;;-49
2019/11/14 11:40:30;;;;;;;3.38;1.90;;;;;;;20.90;46.05;99211.99;;;;-52
2019/11/14 11:43:30;;;;;;;3.05;1.80;;;;;;;20.92;46.25;99208.73;;;;-52
2019/11/14 11:46:30;;;;;;;3.84;1.76;;;;;;;20.95;46.31;99213.39;;;;-49
2019/11/14 11:49:30;;;;;;;5.79;1.75;;;;;;;20.94;46.45;99215.83;;;;-55
2019/11/14 11:52:30;;;;;;;2.73;1.61;;;;;;;20.95;46.50;99219.30;;;;-52
2019/11/14 11:55:30;;;;;;;8.15;2.23;;;;;;;20.95;45.68;99219.53;;;;-51
2019/11/14 11:58:30;;;;;;;4.17;1.89;;;;;;;20.94;45.99;99214.32;;;;-51
2019/11/14 12:01:30;;;;;;;3.69;1.59;;;;;;;20.94;46.17;99213.91;;;;-50
2019/11/14 12:04:30;;;;;;;3.17;1.75;;;;;;;20.94;46.21;99212.47;;;;-51
2019/11/14 12:07:30;;;;;;;3.57;1.69;;;;;;;20.93;46.31;99210.10;;;;-51
2019/11/14 12:10:30;;;;;;;3.19;1.60;;;;;;;20.92;46.30;99206.05;;;;-51
2019/11/14 12:13:30;;;;;;;4.13;1.82;;;;;;;20.93;46.21;99204.66;;;;-50
2019/11/14 12:16:30;;;;;;;2.06;1.59;;;;;;;20.92;46.27;99202.70;;;;-51
2019/11/14 12:19:30;;;;;;;3.92;1.77;;;;;;;20.92;46.30;99200.85;;;;-51
2019/11/14 12:22:30;;;;;;;3.99;1.73;;;;;;;20.92;46.29;99196.16;;;;-51
2019/11/14 12:28:30;;;;;;;3.49;1.74;;;;;;;20.91;46.33;99181.53;;;;-51
2019/11/14 12:31:30;;;;;;;2.14;1.57;;;;;;;20.91;46.35;99171.97;;;;-51
2019/11/14 12:34:30;;;;;;;2.43;1.65;;;;;;;20.91;46.38;99174.98;;;;-51
2019/11/14 12:37:30;;;;;;;3.41;1.52;;;;;;;20.91;46.43;99172.31;;;;-51
2019/11/14 12:40:30;;;;;;;2.37;1.60;;;;;;;20.91;46.41;99164.08;;;;-51
2019/11/14 12:43:30;;;;;;;1.94;1.69;;;;;;;20.91;46.40;99165.69;;;;-50
2019/11/14 12:46:30;;;;;;;2.63;1.52;;;;;;;20.91;46.42;99153.34;;;;-51
2019/11/14 12:49:30;;;;;;;2.01;1.51;;;;;;;20.92;46.36;99152.69;;;;-51
2019/11/14 12:52:30;;;;;;;2.06;1.59;;;;;;;20.91;46.40;99142.67;;;;-51
2019/11/14 12:55:30;;;;;;;2.07;1.47;;;;;;;20.91;46.36;99133.55;;;;-51
2019/11/14 12:58:30;;;;;;;5.33;1.89;;;;;;;20.92;46.62;99131.28;;;;-49
2019/11/14 13:01:30;;;;;;;3.33;1.59;;;;;;;20.93;46.58;99125.28;;;;-48
2019/11/14 13:04:30;;;;;;;1.86;1.59;;;;;;;20.96;46.60;99126.14;;;;-48
2019/11/14 13:07:30;;;;;;;1.87;1.63;;;;;;;20.96;46.60;99125.16;;;;-49
2019/11/14 13:10:30;;;;;;;2.73;1.62;;;;;;;21.00;46.36;99126.38;;;;-51
2019/11/14 13:13:30;;;;;;;5.35;1.63;;;;;;;21.00;46.63;99120.60;;;;-50
2019/11/14 13:16:30;;;;;;;2.55;1.69;;;;;;;21.03;46.75;99121.39;;;;-51
2019/11/14 13:19:30;;;;;;;4.12;1.68;;;;;;;21.04;46.84;99109.16;;;;-53
2019/11/14 13:22:30;;;;;;;2.20;1.60;;;;;;;21.05;46.97;99104.31;;;;-48
2019/11/14 13:25:32;;;;;;;2.78;1.50;;;;;;;21.06;45.78;99103.58;;;;-51
2019/11/14 13:28:30;;;;;;;4.32;1.70;;;;;;;21.07;46.00;99092.69;;;;-51
2019/11/14 13:31:30;;;;;;;3.24;1.54;;;;;;;21.09;46.32;99085.59;;;;-49
2019/11/14 13:34:30;;;;;;;9.76;1.85;;;;;;;21.14;46.41;99077.75;;;;-48
2019/11/14 13:37:30;;;;;;;6.89;1.80;;;;;;;21.17;46.73;99074.79;;;;-52
2019/11/14 13:40:30;;;;;;;8.29;1.73;;;;;;;21.21;47.21;99076.76;;;;-50
2019/11/14 13:43:30;;;;;;;5.69;1.83;;;;;;;21.23;46.94;99068.50;;;;-51
2019/11/14 13:46:30;;;;;;;9.23;2.00;;;;;;;21.23;45.96;99071.77;;;;-51
2019/11/14 13:52:51;;;;;;;5.53;1.80;;;;;;;21.27;46.68;99065.27;;;;-51
2019/11/14 13:55:30;;;;;;;4.33;1.79;;;;;;;21.31;47.20;99069.79;;;;-48
2019/11/14 13:58:30;;;;;;;5.55;1.88;;;;;;;21.33;47.12;99077.11;;;;-48
2019/11/14 14:01:30;;;;;;;4.73;1.89;;;;;;;21.34;46.67;99081.49;;;;-47
2019/11/14 14:04:30;;;;;;;4.19;1.85;;;;;;;21.36;46.62;99094.28;;;;-47
2019/11/14 14:07:30;;;;;;;4.25;1.70;;;;;;;21.35;46.28;99091.67;;;;-48
2019/11/14 14:10:30;;;;;;;6.73;1.71;;;;;;;21.37;46.37;99098.50;;;;-50
2019/11/14 14:13:30;;;;;;;4.17;1.77;;;;;;;21.38;46.23;99108.23;;;;-51
2019/11/14 14:16:30;;;;;;;3.59;1.53;;;;;;;21.39;46.26;99109.84;;;;-51
2019/11/14 14:19:30;;;;;;;3.59;1.95;;;;;;;21.39;46.58;99120.02;;;;-50
2019/11/14 14:22:30;;;;;;;3.64;1.65;;;;;;;21.39;46.21;99134.30;;;;-53
2019/11/14 14:25:30;;;;;;;6.31;1.97;;;;;;;21.43;45.66;99140.64;;;;-48
2019/11/14 14:28:30;;;;;;;5.83;1.81;;;;;;;21.44;46.42;99148.96;;;;-49
2019/11/14 14:31:30;;;;;;;3.26;1.69;;;;;;;21.45;46.46;99150.32;;;;-51
2019/11/14 14:34:30;;;;;;;3.28;1.61;;;;;;;21.45;46.67;99150.75;;;;-50
2019/11/14 14:37:30;;;;;;;2.99;1.44;;;;;;;21.48;46.77;99143.34;;;;-50
2019/11/14 14:40:30;;;;;;;4.19;1.61;;;;;;;21.48;46.71;99135.61;;;;-52
2019/11/14 14:43:30;;;;;;;2.38;1.65;;;;;;;21.49;46.72;99119.33;;;;-51
2019/11/14 14:46:30;;;;;;;3.25;1.53;;;;;;;21.51;46.87;99114.91;;;;-50
2019/11/14 14:49:30;;;;;;;3.80;1.60;;;;;;;21.53;46.87;99112.16;;;;-49
2019/11/14 14:52:30;;;;;;;3.65;1.50;;;;;;;21.55;47.02;99094.86;;;;-49
2019/11/14 14:55:30;;;;;;;2.79;1.60;;;;;;;21.56;46.81;99087.66;;;;-47
2019/11/14 14:58:30;;;;;;;1.88;1.49;;;;;;;21.56;46.87;99085.33;;;;-47
2019/11/14 15:01:30;;;;;;;3.13;1.77;;;;;;;21.57;46.85;99076.92;;;;-45
2019/11/14 15:04:30;;;;;;;2.58;1.64;;;;;;;21.59;46.95;99076.48;;;;-50
2019/11/14 15:07:30;;;;;;;2.20;1.61;;;;;;;21.60;47.03;99064.75;;;;-48
2019/11/14 15:10:30;;;;;;;1.98;1.62;;;;;;;21.60;46.95;99057.44;;;;-47
2019/11/14 15:13:30;;;;;;;3.50;1.56;;;;;;;21.62;47.05;99052.09;;;;-47
2019/11/14 15:20:12;;;;;;;5.47;1.63;;;;;;;21.64;46.96;99047.22;;;;-52
2019/11/14 15:22:33;;;;;;;4.23;1.55;;;;;;;21.65;46.78;99045.74;;;;-50
2019/11/14 15:25:30;;;;;;;4.32;1.61;;;;;;;21.63;46.88;99049.31;;;;-52
2019/11/14 15:28:30;;;;;;;2.97;1.60;;;;;;;21.66;47.08;99060.52;;;;-48
2019/11/14 15:31:30;;;;;;;1.63;1.51;;;;;;;21.68;46.79;99061.31;;;;-51
2019/11/14 15:34:30;;;;;;;2.77;1.59;;;;;;;21.68;46.83;99064.59;;;;-49
2019/11/14 15:37:30;;;;;;;3.11;1.62;;;;;;;21.68;46.84;99060.38;;;;-48
2019/11/14 15:40:30;;;;;;;3.09;1.55;;;;;;;21.70;46.86;99064.43;;;;-49
2019/11/14 15:43:30;;;;;;;3.02;1.60;;;;;;;21.70;46.91;99063.78;;;;-50
2019/11/14 15:46:30;;;;;;;2.97;1.40;;;;;;;21.72;47.09;99076.39;;;;-50
2019/11/14 15:49:30;;;;;;;3.09;1.70;;;;;;;21.69;45.82;99075.44;;;;-50
2019/11/14 15:52:30;;;;;;;3.43;1.71;;;;;;;21.69;45.33;99076.44;;;;-48
2019/11/14 15:55:30;;;;;;;4.01;1.74;;;;;;;21.70;45.84;99065.19;;;;-49
2019/11/14 15:58:30;;;;;;;2.37;1.68;;;;;;;21.72;46.07;99059.11;;;;-51
2019/11/14 16:01:30;;;;;;;3.45;1.74;;;;;;;21.73;46.38;99058.18;;;;-50
2019/11/14 16:04:30;;;;;;;2.66;1.59;;;;;;;21.74;46.17;99062.47;;;;-60
2019/11/14 16:07:30;;;;;;;4.04;1.69;;;;;;;21.74;45.23;99065.33;;;;-51
2019/11/14 16:10:30;;;;;;;1.94;1.65;;;;;;;21.73;45.91;99065.91;;;;-51
2019/11/14 16:13:30;;;;;;;2.10;1.55;;;;;;;21.73;45.97;99064.97;;;;-51
2019/11/14 16:16:30;;;;;;;2.53;1.56;;;;;;;21.71;46.12;99058.92;;;;-51
2019/11/14 16:19:30;;;;;;;2.37;1.51;;;;;;;21.71;46.19;99058.31;;;;-51
2019/11/14 16:22:30;;;;;;;1.85;1.65;;;;;;;21.70;46.28;99066.53;;;;-51
2019/11/14 16:25:30;;;;;;;2.71;1.65;;;;;;;21.70;46.26;99069.06;;;;-51
2019/11/14 16:28:30;;;;;;;4.07;1.60;;;;;;;21.69;46.28;99060.75;;;;-52
2019/11/14 16:31:30;;;;;;;1.87;1.49;;;;;;;21.68;46.34;99043.67;;;;-51
2019/11/14 16:34:30;;;;;;;1.77;1.49;;;;;;;21.68;46.31;99037.95;;;;-51
2019/11/14 16:37:30;;;;;;;2.95;1.70;;;;;;;21.67;46.30;99042.30;;;;-52
2019/11/14 16:40:30;;;;;;;2.39;1.48;;;;;;;21.67;46.35;99050.30;;;;-50
2019/11/14 16:43:30;;;;;;;1.93;1.61;;;;;;;21.67;46.40;99052.30;;;;-51
2019/11/14 16:46:30;;;;;;;1.72;1.52;;;;;;;21.66;46.37;99053.63;;;;-51
2019/11/14 16:49:30;;;;;;;1.66;1.56;;;;;;;21.66;46.38;99052.45;;;;-51
2019/11/14 16:52:30;;;;;;;3.10;1.51;;;;;;;21.66;46.28;99050.09;;;;-51
2019/11/14 16:55:30;;;;;;;1.86;1.53;;;;;;;21.65;46.32;99053.88;;;;-50
2019/11/14 16:58:30;;;;;;;2.06;1.69;;;;;;;21.64;46.39;99061.78;;;;-51
2019/11/14 17:01:30;;;;;;;2.01;1.50;;;;;;;21.64;46.46;99058.40;;;;-51
2019/11/14 17:04:30;;;;;;;1.50;1.40;;;;;;;21.65;46.42;99048.84;;;;-52
2019/11/14 17:07:30;;;;;;;2.27;1.49;;;;;;;21.64;46.43;99036.30;;;;-51
2019/11/14 17:10:30;;;;;;;1.64;1.52;;;;;;;21.65;46.43;99027.59;;;;-50
2019/11/14 17:13:30;;;;;;;1.77;1.59;;;;;;;21.64;46.46;99028.02;;;;-50
2019/11/14 17:16:30;;;;;;;2.07;1.49;;;;;;;21.65;46.53;99029.42;;;;-51